Terminal Aerodrome Forecast
Issued by NWS Sioux Falls, SD

Home | Current Version | Previous Version | Graphics & Text | Print | Product List | Glossary Off
Versions: 1 2 3 4 5 6 7 8 9 10 11 12 13 14 15

711
FTUS43 KFSD 200538
TAFHON
TAF
KHON 200538Z 2006/2106 06009KT P6SM SCT060 SCT150
     FM201000 03008KT P6SM SCT100 BKN200
      TEMPO 2010/2013 4SM BR
     FM201500 09008KT P6SM BKN200
     FM201800 09009KT P6SM SCT200=

USA.gov is the U.S. government's official web portal to all federal, state and local government web resources and services.